Time,TemperatureF,DewpointF,PressureIn,WindDirection,WindDirectionDegrees,WindSpeedMPH,WindSpeedGustMPH,Humidity,HourlyPrecipIn,Conditions,Clouds,dailyrainin,SolarRadiationWatts/m^2,SoftwareType,DateUTC
2013-01-17 00:02:00,21.0,4.0,-100.00,NNW,329,8.0,12.0,48,0.00,,,0.00,0.000000,,2013-01-17 06:02:00,
2013-01-17 00:33:00,19.0,3.0,-100.00,NNW,330,8.0,14.0,50,0.00,,,0.00,0.000000,,2013-01-17 06:33:00,
2013-01-17 00:42:00,19.0,3.0,-100.00,NNW,330,8.0,14.0,50,0.00,,,0.00,0.000000,,2013-01-17 06:42:00,
2013-01-17 00:53:00,19.0,3.0,-100.00,NNW,330,8.0,14.0,50,0.00,,,0.00,0.000000,,2013-01-17 06:53:00,
2013-01-17 01:02:00,19.0,3.0,-100.00,NNW,330,8.0,14.0,50,0.00,,,0.00,0.000000,,2013-01-17 07:02:00,
2013-01-17 01:33:00,17.0,2.0,-100.00,NNW,331,6.0,11.0,52,0.00,,,0.00,0.000000,,2013-01-17 07:33:00,
2013-01-17 01:43:00,17.0,2.0,-100.00,NNW,331,6.0,11.0,52,0.00,,,0.00,0.000000,,2013-01-17 07:43:00,
2013-01-17 01:52:00,17.0,2.0,-100.00,NNW,331,6.0,11.0,52,0.00,,,0.00,0.000000,,2013-01-17 07:52:00,
2013-01-17 02:02:00,17.0,2.0,-100.00,NNW,331,6.0,11.0,52,0.00,,,0.00,0.000000,,2013-01-17 08:02:00,
2013-01-17 02:32:00,15.0,0.0,-100.00,NNW,341,7.0,12.0,50,0.00,,,0.00,0.000000,,2013-01-17 08:32:00,
2013-01-17 02:43:00,15.0,0.0,-100.00,NNW,341,7.0,12.0,50,0.00,,,0.00,0.000000,,2013-01-17 08:43:00,
2013-01-17 02:53:00,15.0,0.0,-100.00,NNW,341,7.0,12.0,50,0.00,,,0.00,0.000000,,2013-01-17 08:53:00,
2013-01-17 03:02:00,15.0,0.0,-100.00,NNW,341,7.0,12.0,50,0.00,,,0.00,0.000000,,2013-01-17 09:02:00,
2013-01-17 03:33:00,15.0,1.0,-100.00,NNW,328,5.0,11.0,52,0.00,,,0.00,0.000000,,2013-01-17 09:33:00,
2013-01-17 03:43:00,15.0,1.0,-100.00,NNW,328,5.0,11.0,52,0.00,,,0.00,0.000000,,2013-01-17 09:43:00,
2013-01-17 03:52:00,15.0,1.0,-100.00,NNW,328,5.0,11.0,52,0.00,,,0.00,0.000000,,2013-01-17 09:52:00,
2013-01-17 04:02:00,15.0,1.0,-100.00,NNW,328,5.0,11.0,52,0.00,,,0.00,0.000000,,2013-01-17 10:02:00,
2013-01-17 04:33:00,14.0,0.0,-100.00,NNW,336,6.0,15.0,52,0.00,,,0.00,0.000000,,2013-01-17 10:33:00,
2013-01-17 04:43:00,14.0,0.0,-100.00,NNW,336,6.0,15.0,52,0.00,,,0.00,0.000000,,2013-01-17 10:43:00,
2013-01-17 04:53:00,14.0,0.0,-100.00,NNW,336,6.0,15.0,52,0.00,,,0.00,0.000000,,2013-01-17 10:53:00,
2013-01-17 05:02:00,14.0,0.0,-100.00,NNW,336,6.0,15.0,52,0.00,,,0.00,0.000000,,2013-01-17 11:02:00,
2013-01-17 05:33:00,12.0,-1.0,-100.00,NNW,329,4.0,13.0,55,0.00,,,0.00,0.000000,,2013-01-17 11:33:00,
2013-01-17 05:43:00,12.0,-1.0,-100.00,NNW,329,4.0,13.0,55,0.00,,,0.00,0.000000,,2013-01-17 11:43:00,
2013-01-17 05:53:00,12.0,-1.0,-100.00,NNW,329,4.0,13.0,55,0.00,,,0.00,0.000000,,2013-01-17 11:53:00,
2013-01-17 06:02:00,12.0,-1.0,-100.00,NNW,329,4.0,13.0,55,0.00,,,0.00,0.000000,,2013-01-17 12:02:00,
2013-01-17 06:33:00,10.0,-2.0,-100.00,NW,325,5.0,9.0,57,0.00,,,0.00,0.000000,,2013-01-17 12:33:00,
2013-01-17 06:43:00,10.0,-2.0,-100.00,NW,325,5.0,9.0,57,0.00,,,0.00,0.000000,,2013-01-17 12:43:00,
2013-01-17 06:53:00,10.0,-2.0,-100.00,NW,325,5.0,9.0,57,0.00,,,0.00,0.000000,,2013-01-17 12:53:00,
2013-01-17 07:03:00,10.0,-2.0,-100.00,NW,325,5.0,9.0,57,0.00,,,0.00,0.000000,,2013-01-17 13:03:00,
2013-01-17 07:33:00,9.0,-2.0,-100.00,WNW,301,3.0,9.0,61,0.00,,,0.00,0.000000,,2013-01-17 13:33:00,
2013-01-17 07:43:00,9.0,-2.0,-100.00,WNW,301,3.0,9.0,61,0.00,,,0.00,0.000000,,2013-01-17 13:43:00,
2013-01-17 07:53:00,9.0,-2.0,-100.00,WNW,301,3.0,9.0,61,0.00,,,0.00,0.000000,,2013-01-17 13:53:00,
2013-01-17 08:03:00,9.0,-2.0,-100.00,WNW,301,3.0,9.0,61,0.00,,,0.00,0.000000,,2013-01-17 14:03:00,
2013-01-17 08:33:00,10.0,-1.0,-100.00,NNW,329,4.0,8.0,60,0.00,,,0.00,19.000000,,2013-01-17 14:33:00,
2013-01-17 08:43:00,10.0,-1.0,-100.00,NNW,329,4.0,8.0,60,0.00,,,0.00,19.000000,,2013-01-17 14:43:00,
2013-01-17 08:53:00,10.0,-1.0,-100.00,NNW,329,4.0,8.0,60,0.00,,,0.00,19.000000,,2013-01-17 14:53:00,
2013-01-17 09:03:00,10.0,-1.0,-100.00,NNW,329,4.0,8.0,60,0.00,,,0.00,19.000000,,2013-01-17 15:03:00,
2013-01-17 09:33:00,13.0,-5.0,-100.00,NW,320,8.0,13.0,43,0.00,,,0.00,155.000000,,2013-01-17 15:33:00,
2013-01-17 09:43:00,13.0,-5.0,-100.00,NW,320,8.0,13.0,43,0.00,,,0.00,155.000000,,2013-01-17 15:43:00,
2013-01-17 09:53:00,13.0,-5.0,-100.00,NW,320,8.0,13.0,43,0.00,,,0.00,155.000000,,2013-01-17 15:53:00,
2013-01-17 10:02:00,13.0,-5.0,-100.00,NW,320,8.0,13.0,43,0.00,,,0.00,155.000000,,2013-01-17 16:02:00,
2013-01-17 10:34:00,14.0,-7.0,-100.00,NW,312,8.0,15.0,37,0.00,,,0.00,228.000000,,2013-01-17 16:34:00,
2013-01-17 10:44:00,14.0,-7.0,-100.00,NW,312,8.0,15.0,37,0.00,,,0.00,228.000000,,2013-01-17 16:44:00,
2013-01-17 10:53:00,14.0,-7.0,-100.00,NW,312,8.0,15.0,37,0.00,,,0.00,228.000000,,2013-01-17 16:53:00,
2013-01-17 11:03:00,14.0,-7.0,-100.00,NW,312,8.0,15.0,37,0.00,,,0.00,228.000000,,2013-01-17 17:03:00,
2013-01-17 11:33:00,15.0,-6.0,-100.00,West,264,5.0,12.0,38,0.00,,,0.00,268.000000,,2013-01-17 17:33:00,
2013-01-17 11:43:00,15.0,-6.0,-100.00,West,264,5.0,12.0,38,0.00,,,0.00,268.000000,,2013-01-17 17:43:00,
2013-01-17 11:53:00,15.0,-6.0,-100.00,West,264,5.0,12.0,38,0.00,,,0.00,268.000000,,2013-01-17 17:53:00,
2013-01-17 12:03:00,15.0,-6.0,-100.00,West,264,5.0,12.0,38,0.00,,,0.00,268.000000,,2013-01-17 18:03:00,
2013-01-17 12:34:00,17.0,-3.0,-100.00,WSW,257,7.0,12.0,40,0.00,,,0.00,231.000000,,2013-01-17 18:34:00,
2013-01-17 12:44:00,17.0,-3.0,-100.00,WSW,257,7.0,12.0,40,0.00,,,0.00,231.000000,,2013-01-17 18:44:00,
2013-01-17 12:53:00,17.0,-3.0,-100.00,WSW,257,7.0,12.0,40,0.00,,,0.00,231.000000,,2013-01-17 18:53:00,
2013-01-17 13:03:00,17.0,-3.0,-100.00,WSW,257,7.0,12.0,40,0.00,,,0.00,231.000000,,2013-01-17 19:03:00,
2013-01-17 13:33:00,20.0,0.0,-100.00,NW,309,6.0,13.0,40,0.00,,,0.00,295.000000,,2013-01-17 19:33:00,
2013-01-17 13:43:00,20.0,0.0,-100.00,NW,309,6.0,13.0,40,0.00,,,0.00,295.000000,,2013-01-17 19:43:00,
2013-01-17 13:53:00,20.0,0.0,-100.00,NW,309,6.0,13.0,40,0.00,,,0.00,295.000000,,2013-01-17 19:53:00,
2013-01-17 14:03:00,20.0,0.0,-100.00,NW,309,6.0,13.0,40,0.00,,,0.00,295.000000,,2013-01-17 20:03:00,
2013-01-17 15:34:00,20.0,2.0,-100.00,NW,307,8.0,15.0,44,-99.99,,,0.00,208.000000,,2013-01-17 21:34:00,
2013-01-17 15:43:00,20.0,2.0,-100.00,NW,307,8.0,15.0,44,-99.99,,,0.00,208.000000,,2013-01-17 21:43:00,
2013-01-17 15:53:00,20.0,2.0,-100.00,NW,307,8.0,15.0,44,-99.99,,,0.00,208.000000,,2013-01-17 21:53:00,
2013-01-17 16:03:00,20.0,2.0,-100.00,NW,307,8.0,15.0,44,-99.99,,,0.00,208.000000,,2013-01-17 22:03:00,
2013-01-17 16:33:00,19.0,3.0,-100.00,WNW,303,8.0,15.0,50,0.00,,,0.00,62.000000,,2013-01-17 22:33:00,
2013-01-17 16:43:00,19.0,3.0,-100.00,WNW,303,8.0,15.0,50,0.00,,,0.00,62.000000,,2013-01-17 22:43:00,
2013-01-17 16:53:00,19.0,3.0,-100.00,WNW,303,8.0,15.0,50,0.00,,,0.00,62.000000,,2013-01-17 22:53:00,
2013-01-17 17:03:00,19.0,3.0,-100.00,WNW,303,8.0,15.0,50,0.00,,,0.00,62.000000,,2013-01-17 23:03:00,
2013-01-17 17:33:00,17.0,3.0,-100.00,WNW,301,5.0,11.0,54,0.00,,,0.00,15.000000,,2013-01-17 23:33:00,
2013-01-17 17:43:00,17.0,3.0,-100.00,WNW,301,5.0,11.0,54,0.00,,,0.00,15.000000,,2013-01-17 23:43:00,
2013-01-17 17:53:00,17.0,3.0,-100.00,WNW,301,5.0,11.0,54,0.00,,,0.00,15.000000,,2013-01-17 23:53:00,
2013-01-17 18:03:00,17.0,3.0,-100.00,WNW,301,5.0,11.0,54,0.00,,,0.00,15.000000,,2013-01-18 00:03:00,
2013-01-17 18:33:00,15.0,4.0,-100.00,NW,312,3.0,9.0,60,0.00,,,0.00,0.000000,,2013-01-18 00:33:00,
2013-01-17 18:43:00,15.0,4.0,-100.00,NW,312,3.0,9.0,60,0.00,,,0.00,0.000000,,2013-01-18 00:43:00,
2013-01-17 18:53:00,15.0,4.0,-100.00,NW,312,3.0,9.0,60,0.00,,,0.00,0.000000,,2013-01-18 00:53:00,
2013-01-17 19:03:00,15.0,4.0,-100.00,NW,312,3.0,9.0,60,0.00,,,0.00,0.000000,,2013-01-18 01:03:00,
2013-01-17 19:33:00,10.0,3.0,-100.00,NNW,329,2.0,5.0,72,0.00,,,0.00,0.000000,,2013-01-18 01:33:00,
2013-01-17 19:43:00,10.0,3.0,-100.00,NNW,329,2.0,5.0,72,0.00,,,0.00,0.000000,,2013-01-18 01:43:00,
2013-01-17 19:53:00,10.0,3.0,-100.00,NNW,329,2.0,5.0,72,0.00,,,0.00,0.000000,,2013-01-18 01:53:00,
2013-01-17 20:02:00,10.0,3.0,-100.00,NNW,329,2.0,5.0,72,0.00,,,0.00,0.000000,,2013-01-18 02:02:00,
2013-01-17 20:33:00,9.0,4.0,-100.00,NW,312,2.0,5.0,79,0.00,,,-99.99,0.000000,,2013-01-18 02:33:00,
2013-01-17 20:43:00,9.0,4.0,-100.00,NW,312,2.0,5.0,79,0.00,,,-99.99,0.000000,,2013-01-18 02:43:00,
2013-01-17 20:53:00,9.0,4.0,-100.00,NW,312,2.0,5.0,79,0.00,,,-99.99,0.000000,,2013-01-18 02:53:00,
2013-01-17 21:02:00,9.0,4.0,-100.00,NW,312,2.0,5.0,79,0.00,,,-99.99,0.000000,,2013-01-18 03:02:00,
2013-01-17 21:33:00,9.0,3.0,-100.00,NW,304,2.0,5.0,77,0.00,,,0.00,0.000000,,2013-01-18 03:33:00,
2013-01-17 21:43:00,9.0,3.0,-100.00,NW,304,2.0,5.0,77,0.00,,,0.00,0.000000,,2013-01-18 03:43:00,
2013-01-17 21:53:00,9.0,3.0,-100.00,NW,304,2.0,5.0,77,0.00,,,0.00,0.000000,,2013-01-18 03:53:00,
2013-01-17 22:02:00,9.0,3.0,-100.00,NW,304,2.0,5.0,77,0.00,,,0.00,0.000000,,2013-01-18 04:02:00,
2013-01-17 22:33:00,2.0,-4.0,-100.00,East,88,2.0,3.0,76,0.00,,,0.00,0.000000,,2013-01-18 04:33:00,
2013-01-17 22:42:00,2.0,-4.0,-100.00,East,88,2.0,3.0,76,0.00,,,0.00,0.000000,,2013-01-18 04:42:00,
2013-01-17 22:53:00,2.0,-4.0,-100.00,East,88,2.0,3.0,76,0.00,,,0.00,0.000000,,2013-01-18 04:53:00,
2013-01-17 23:03:00,2.0,-4.0,-100.00,East,88,2.0,3.0,76,0.00,,,0.00,0.000000,,2013-01-18 05:03:00,
2013-01-17 23:33:00,1.0,-4.0,-100.00,WSW,246,1.0,2.0,80,0.00,,,0.00,0.000000,,2013-01-18 05:33:00,
2013-01-17 23:43:00,1.0,-4.0,-100.00,WSW,246,1.0,2.0,80,0.00,,,0.00,0.000000,,2013-01-18 05:43:00,
2013-01-17 23:53:00,1.0,-4.0,-100.00,WSW,246,1.0,2.0,80,0.00,,,0.00,0.000000,,2013-01-18 05:53:00,